Time;durP1;ratioP1;P1;durP2;ratioP2;P2;SDS_P1;SDS_P2;PMS_P1;PMS_P2;Temp;Humidity;BMP_temperature;BMP_pressure;BME280_temperature;BME280_humidity;BME280_pressure;Samples;Min_cycle;Max_cycle;Signal;HPM_P1;HPM_P2
2023/05/23 00:01:49;;;;;;;14.77;4.65;;;;;;;;;;4992100;28;20058;-68
2023/05/23 00:04:17;;;;;;;8.45;3.67;;;;;;;;;;4990512;28;20057;-71
2023/05/23 00:06:45;;;;;;;8.70;3.78;;;;;;;;;;4983740;28;20141;-69
2023/05/23 00:09:12;;;;;;;11.48;4.13;;;;;;;;;;4991509;28;20062;-69
2023/05/23 00:11:43;;;;;;;6.93;3.20;;;;;;;;;;4992024;28;20088;-70
2023/05/23 00:14:10;;;;;;;11.65;4.40;;;;;;;;;;4981008;28;20097;-70
2023/05/23 00:16:40;;;;;;;11.07;3.78;;;;;;;;;;4975812;28;20164;-71
2023/05/23 00:19:07;;;;;;;8.65;3.50;;;;;;;;;;4980410;28;20116;-68
2023/05/23 00:21:33;;;;;;;12.43;3.85;;;;;;;;;;4993439;28;20050;-68
2023/05/23 00:24:01;;;;;;;10.60;3.63;;;;;;;;;;4979775;28;20129;-72
2023/05/23 00:26:28;;;;;;;11.38;4.07;;;;;;;;;;4980958;28;20092;-70
2023/05/23 00:28:57;;;;;;;11.07;3.83;;;;;;;;;;4971235;28;20064;-70
2023/05/23 00:31:24;;;;;;;15.38;5.13;;;;;;;;;;4981740;28;20062;-70
2023/05/23 00:33:50;;;;;;;9.43;3.92;;;;;;;;;;4977688;28;20149;-70
2023/05/23 00:36:17;;;;;;;8.50;3.72;;;;;;;;;;4982763;28;20054;-72
2023/05/23 00:38:44;;;;;;;9.60;4.22;;;;;;;;;;4970499;28;20066;-72
2023/05/23 00:41:11;;;;;;;8.20;3.50;;;;;;;;;;4981999;28;20069;-70
2023/05/23 00:43:39;;;;;;;10.95;4.65;;;;;;;;;;4980230;28;20144;-68
2023/05/23 00:46:07;;;;;;;11.50;3.80;;;;;;;;;;4979800;28;20145;-69
2023/05/23 00:48:34;;;;;;;6.93;3.55;;;;;;;;;;4972824;28;20058;-71
2023/05/23 00:51:00;;;;;;;7.32;3.45;;;;;;;;;;4960665;28;20055;-69
2023/05/23 00:53:27;;;;;;;12.07;3.70;;;;;;;;;;4965725;28;20058;-72
2023/05/23 00:55:53;;;;;;;9.70;3.85;;;;;;;;;;4979315;28;20062;-72
2023/05/23 00:58:20;;;;;;;10.45;3.97;;;;;;;;;;4973597;28;20050;-70
2023/05/23 01:00:49;;;;;;;8.70;3.92;;;;;;;;;;4972867;28;20124;-71
2023/05/23 01:03:17;;;;;;;11.55;4.28;;;;;;;;;;4975297;28;20234;-69
2023/05/23 01:05:44;;;;;;;;;;;;;;;;;;4982437;28;20148;-70
2023/05/23 01:08:10;;;;;;;14.60;3.50;;;;;;;;;;4976040;28;19936;-69
2023/05/23 01:10:37;;;;;;;10.23;3.53;;;;;;;;;;4977084;28;20058;-68
2023/05/23 01:13:10;;;;;;;12.88;3.67;;;;;;;;;;4984210;28;20069;-71
2023/05/23 01:15:38;;;;;;;12.25;3.20;;;;;;;;;;4975935;28;20050;-71
2023/05/23 01:18:08;;;;;;;9.35;3.88;;;;;;;;;;4977803;28;20063;-72
2023/05/23 01:20:39;;;;;;;12.07;3.95;;;;;;;;;;4973898;28;20058;-69
2023/05/23 01:23:21;;;;;;;10.27;3.67;;;;;;;;;;4978708;28;20093;-69
2023/05/23 01:25:58;;;;;;;7.22;3.05;;;;;;;;;;4974807;28;20078;-72
2023/05/23 01:28:27;;;;;;;7.05;3.25;;;;;;;;;;4967382;28;20070;-72
2023/05/23 01:30:57;;;;;;;10.13;3.88;;;;;;;;;;4971503;28;20144;-69
2023/05/23 01:33:24;;;;;;;7.32;3.05;;;;;;;;;;4980030;28;20062;-72
2023/05/23 01:35:51;;;;;;;7.93;3.38;;;;;;;;;;4976007;28;20062;-72
2023/05/23 01:38:17;;;;;;;7.95;3.10;;;;;;;;;;4975852;28;20058;-68
2023/05/23 01:40:44;;;;;;;8.07;3.03;;;;;;;;;;4970734;28;20062;-71
2023/05/23 01:43:10;;;;;;;6.70;2.80;;;;;;;;;;4980028;28;20132;-71
2023/05/23 01:45:39;;;;;;;7.65;3.25;;;;;;;;;;4975727;28;20050;-72
2023/05/23 01:48:05;;;;;;;6.47;3.38;;;;;;;;;;4977827;28;20069;-71
2023/05/23 01:50:32;;;;;;;6.65;2.80;;;;;;;;;;4973173;28;20109;-69
2023/05/23 01:52:59;;;;;;;8.98;3.25;;;;;;;;;;4976943;28;20073;-72
2023/05/23 01:55:26;;;;;;;7.35;2.85;;;;;;;;;;4975899;28;20058;-71
2023/05/23 01:57:54;;;;;;;6.95;2.97;;;;;;;;;;4962600;28;20069;-68
2023/05/23 02:00:21;;;;;;;9.98;3.67;;;;;;;;;;4955982;28;20054;-72
2023/05/23 02:02:49;;;;;;;8.18;3.38;;;;;;;;;;4972197;28;20054;-70
2023/05/23 02:05:16;;;;;;;10.50;3.55;;;;;;;;;;4952588;28;20244;-69
2023/05/23 02:07:42;;;;;;;9.48;3.15;;;;;;;;;;4975441;28;20085;-71
2023/05/23 02:10:09;;;;;;;9.90;3.97;;;;;;;;;;4978547;28;20058;-72
2023/05/23 02:12:36;;;;;;;8.73;3.35;;;;;;;;;;4975379;28;20064;-69
2023/05/23 02:15:02;;;;;;;8.30;3.33;;;;;;;;;;4973790;28;20090;-73
2023/05/23 02:17:29;;;;;;;7.32;3.00;;;;;;;;;;4970899;28;20064;-71
2023/05/23 02:19:57;;;;;;;6.43;2.50;;;;;;;;;;4978548;28;20069;-69
2023/05/23 02:22:24;;;;;;;13.30;3.88;;;;;;;;;;4978447;28;20069;-72
2023/05/23 02:24:50;;;;;;;9.52;3.63;;;;;;;;;;4957636;28;20108;-71
2023/05/23 02:27:17;;;;;;;6.90;3.17;;;;;;;;;;4969680;28;20046;-72
2023/05/23 02:29:43;;;;;;;7.72;3.35;;;;;;;;;;4976090;28;20054;-69
2023/05/23 02:32:10;;;;;;;7.72;3.03;;;;;;;;;;4976573;28;20054;-72
2023/05/23 02:34:37;;;;;;;6.72;2.78;;;;;;;;;;4976874;28;20145;-69
2023/05/23 02:37:05;;;;;;;8.50;3.45;;;;;;;;;;4974974;28;20065;-69
2023/05/23 02:39:32;;;;;;;;;;;;;;;;;;4973753;28;20099;-70
2023/05/23 02:41:58;;;;;;;12.00;3.90;;;;;;;;;;4979758;28;19932;-72
2023/05/23 02:44:24;;;;;;;9.20;2.72;;;;;;;;;;4971990;28;20141;-70
2023/05/23 02:46:51;;;;;;;8.95;3.42;;;;;;;;;;4958888;28;20082;-71
2023/05/23 02:49:18;;;;;;;10.10;3.10;;;;;;;;;;4949445;28;20054;-70
2023/05/23 02:51:44;;;;;;;13.18;3.60;;;;;;;;;;4962379;28;20062;-67
2023/05/23 02:54:12;;;;;;;14.88;4.30;;;;;;;;;;4946241;28;20073;-71
2023/05/23 02:56:38;;;;;;;10.27;3.33;;;;;;;;;;4960067;28;20066;-72
2023/05/23 02:59:05;;;;;;;15.73;4.55;;;;;;;;;;4957892;28;20317;-68
2023/05/23 03:01:31;;;;;;;8.80;3.17;;;;;;;;;;4955631;28;20047;-70
2023/05/23 03:03:58;;;;;;;9.05;4.05;;;;;;;;;;4954338;28;20055;-69
2023/05/23 03:06:26;;;;;;;7.82;3.58;;;;;;;;;;4980439;28;20133;-71
2023/05/23 03:08:52;;;;;;;8.10;3.08;;;;;;;;;;4977308;28;20062;-69
2023/05/23 03:11:21;;;;;;;9.63;3.17;;;;;;;;;;4972299;28;20155;-68
2023/05/23 03:13:48;;;;;;;8.55;3.30;;;;;;;;;;4973826;28;20042;-69
2023/05/23 03:16:16;;;;;;;7.43;3.17;;;;;;;;;;4967536;28;20054;-70
2023/05/23 03:18:43;;;;;;;7.40;3.25;;;;;;;;;;4974250;28;20145;-71
2023/05/23 03:21:09;;;;;;;8.23;3.58;;;;;;;;;;4992362;28;20064;-72
2023/05/23 03:23:36;;;;;;;7.03;3.10;;;;;;;;;;4985876;28;20061;-70
2023/05/23 03:26:05;;;;;;;7.40;2.97;;;;;;;;;;4977866;28;20065;-69
2023/05/23 03:28:33;;;;;;;9.40;3.63;;;;;;;;;;4977413;28;20193;-69
2023/05/23 03:30:59;;;;;;;7.28;2.78;;;;;;;;;;4976331;28;20066;-69
2023/05/23 03:33:26;;;;;;;8.90;2.88;;;;;;;;;;4971134;28;20072;-69
2023/05/23 03:35:52;;;;;;;10.07;3.92;;;;;;;;;;4956226;28;20341;-71
2023/05/23 03:38:19;;;;;;;9.57;3.65;;;;;;;;;;4979068;28;20062;-69
2023/05/23 03:40:46;;;;;;;12.80;3.47;;;;;;;;;;4973480;28;20058;-71
2023/05/23 03:43:12;;;;;;;10.70;4.25;;;;;;;;;;4975872;28;20150;-72
2023/05/23 03:45:40;;;;;;;10.57;3.83;;;;;;;;;;4946864;28;20058;-71
2023/05/23 03:48:07;;;;;;;9.32;3.60;;;;;;;;;;4980472;28;20066;-72
2023/05/23 03:50:34;;;;;;;10.15;3.83;;;;;;;;;;4978248;28;20066;-70
2023/05/23 03:53:00;;;;;;;8.50;3.85;;;;;;;;;;4962080;28;20050;-72
2023/05/23 03:55:27;;;;;;;8.85;3.17;;;;;;;;;;4948978;28;20057;-73
2023/05/23 03:57:53;;;;;;;8.57;3.22;;;;;;;;;;4966107;28;20067;-73
2023/05/23 04:00:20;;;;;;;7.47;2.90;;;;;;;;;;4957307;28;20130;-70
2023/05/23 04:02:48;;;;;;;6.80;3.20;;;;;;;;;;4962208;28;20058;-70
2023/05/23 04:05:15;;;;;;;9.88;3.05;;;;;;;;;;4960846;28;20073;-71
2023/05/23 04:07:42;;;;;;;16.95;4.28;;;;;;;;;;4979871;28;20073;-71
2023/05/23 04:10:08;;;;;;;12.55;3.67;;;;;;;;;;4979099;28;20054;-70
2023/05/23 04:12:35;;;;;;;11.05;3.42;;;;;;;;;;4981376;28;20064;-71
2023/05/23 04:15:02;;;;;;;19.70;4.60;;;;;;;;;;4985400;28;20162;-71
2023/05/23 04:17:30;;;;;;;17.33;4.35;;;;;;;;;;4985588;28;20058;-72
2023/05/23 04:19:58;;;;;;;8.38;2.92;;;;;;;;;;4966696;28;20086;-71
2023/05/23 04:22:25;;;;;;;7.38;3.35;;;;;;;;;;4980973;28;20061;-72
2023/05/23 04:24:51;;;;;;;9.88;3.42;;;;;;;;;;4978070;28;20088;-70
2023/05/23 04:27:18;;;;;;;13.18;3.85;;;;;;;;;;4979002;28;20057;-71
2023/05/23 04:29:45;;;;;;;10.60;3.33;;;;;;;;;;4983093;28;20061;-70
2023/05/23 04:32:12;;;;;;;11.23;3.50;;;;;;;;;;4978603;28;20172;-71
2023/05/23 04:34:40;;;;;;;16.58;4.90;;;;;;;;;;4979081;28;20057;-69
2023/05/23 04:37:08;;;;;;;14.50;4.20;;;;;;;;;;4980266;28;20057;-71
2023/05/23 04:39:35;;;;;;;;;;;;;;;;;;4984738;28;20078;-69
2023/05/23 04:42:01;;;;;;;11.07;3.60;;;;;;;;;;4982144;28;19965;-72
2023/05/23 04:44:29;;;;;;;12.50;4.45;;;;;;;;;;4979407;28;20074;-71
2023/05/23 04:46:55;;;;;;;14.80;4.00;;;;;;;;;;4981401;28;20110;-71
2023/05/23 04:49:22;;;;;;;12.07;3.92;;;;;;;;;;4977702;28;20065;-72
2023/05/23 04:51:49;;;;;;;12.38;4.03;;;;;;;;;;4981317;28;20129;-71
2023/05/23 04:54:17;;;;;;;10.70;3.85;;;;;;;;;;4963985;28;20143;-73
2023/05/23 04:56:43;;;;;;;9.95;3.63;;;;;;;;;;4999849;28;20066;-70
2023/05/23 04:59:12;;;;;;;12.95;4.03;;;;;;;;;;4976496;28;20054;-72
2023/05/23 05:01:41;;;;;;;11.32;3.63;;;;;;;;;;4983461;28;20078;-71
2023/05/23 05:04:07;;;;;;;9.00;3.63;;;;;;;;;;4975535;28;20089;-70
2023/05/23 05:06:34;;;;;;;11.85;2.88;;;;;;;;;;4984540;28;20149;-69
2023/05/23 05:09:01;;;;;;;10.77;3.22;;;;;;;;;;4980582;28;20076;-70
2023/05/23 05:11:29;;;;;;;12.60;3.85;;;;;;;;;;4980778;28;20058;-72
2023/05/23 05:13:56;;;;;;;11.48;3.58;;;;;;;;;;4982086;28;20049;-71
2023/05/23 05:16:22;;;;;;;12.32;3.55;;;;;;;;;;4958562;28;20061;-70
2023/05/23 05:18:49;;;;;;;10.13;3.13;;;;;;;;;;4957574;28;20059;-71
2023/05/23 05:21:16;;;;;;;7.40;3.13;;;;;;;;;;4962559;28;20066;-69
2023/05/23 05:23:42;;;;;;;17.50;4.22;;;;;;;;;;4959477;28;20050;-69
2023/05/23 05:26:09;;;;;;;9.55;3.63;;;;;;;;;;4975790;28;20066;-72
2023/05/23 05:28:37;;;;;;;8.32;2.78;;;;;;;;;;5010202;28;20090;-71
2023/05/23 05:31:04;;;;;;;15.57;3.20;;;;;;;;;;4980762;28;20062;-70
2023/05/23 05:33:35;;;;;;;10.15;2.55;;;;;;;;;;4969522;28;20058;-72
2023/05/23 05:36:01;;;;;;;13.05;2.58;;;;;;;;;;4982890;28;20116;-69
2023/05/23 05:38:28;;;;;;;8.88;2.50;;;;;;;;;;4981257;28;20050;-71
2023/05/23 05:40:54;;;;;;;14.93;3.05;;;;;;;;;;4975586;28;20157;-69
2023/05/23 05:43:21;;;;;;;5.93;1.80;;;;;;;;;;4975708;28;20077;-70
2023/05/23 05:45:51;;;;;;;8.10;2.65;;;;;;;;;;4967321;28;20058;-70
2023/05/23 05:48:17;;;;;;;7.38;2.95;;;;;;;;;;4983690;28;20057;-70
2023/05/23 05:50:45;;;;;;;8.75;2.75;;;;;;;;;;4977295;28;20058;-68
2023/05/23 05:53:12;;;;;;;6.57;2.42;;;;;;;;;;4980086;28;20133;-70
2023/05/23 05:55:39;;;;;;;7.57;2.35;;;;;;;;;;4971676;28;20046;-70
2023/05/23 05:58:06;;;;;;;7.45;2.53;;;;;;;;;;4980862;28;20161;-71
2023/05/23 06:00:40;;;;;;;11.23;2.95;;;;;;;;;;4974130;28;20074;-69
2023/05/23 06:03:08;;;;;;;13.32;2.97;;;;;;;;;;4979770;28;20131;-70
2023/05/23 06:05:36;;;;;;;11.23;2.78;;;;;;;;;;4960066;28;20054;-69
2023/05/23 06:08:03;;;;;;;9.55;2.50;;;;;;;;;;4981188;28;20105;-70
2023/05/23 06:10:33;;;;;;;11.85;2.63;;;;;;;;;;4975138;28;20153;-70
2023/05/23 06:12:59;;;;;;;8.88;2.80;;;;;;;;;;4978294;28;20054;-70
2023/05/23 06:15:29;;;;;;;10.63;2.63;;;;;;;;;;4939347;28;20054;-69
2023/05/23 06:17:55;;;;;;;7.35;2.38;;;;;;;;;;4974832;28;20050;-69
2023/05/23 06:20:24;;;;;;;9.30;2.67;;;;;;;;;;4973611;28;20070;-73
2023/05/23 06:22:51;;;;;;;8.40;2.13;;;;;;;;;;4975492;28;20052;-71
2023/05/23 06:31:04;;;;;;;8.82;2.58;;;;;;;;;;4902504;28;20112;-71
2023/05/23 06:33:31;;;;;;;10.10;2.95;;;;;;;;;;4978484;28;20104;-72
2023/05/23 06:35:59;;;;;;;7.65;2.85;;;;;;;;;;4976010;28;20069;-70
2023/05/23 06:38:28;;;;;;;6.20;2.17;;;;;;;;;;4959316;28;20065;-69
2023/05/23 06:40:55;;;;;;;8.70;2.30;;;;;;;;;;4959297;28;20067;-69
2023/05/23 06:43:21;;;;;;;10.73;3.15;;;;;;;;;;4976167;28;20104;-70
2023/05/23 06:45:48;;;;;;;10.63;2.80;;;;;;;;;;4990957;28;20078;-74
2023/05/23 06:48:15;;;;;;;8.20;2.97;;;;;;;;;;4977040;28;20137;-70
2023/05/23 06:50:41;;;;;;;11.68;2.50;;;;;;;;;;4972599;28;20042;-71
2023/05/23 06:53:09;;;;;;;8.35;2.28;;;;;;;;;;4976271;28;20069;-71
2023/05/23 06:55:36;;;;;;;9.40;2.50;;;;;;;;;;4966399;28;20065;-73
2023/05/23 06:58:04;;;;;;;11.80;3.35;;;;;;;;;;4975309;28;20109;-71
2023/05/23 07:00:31;;;;;;;10.55;2.88;;;;;;;;;;4974992;28;20057;-73
2023/05/23 07:03:00;;;;;;;7.05;2.38;;;;;;;;;;4974898;28;20061;-73
2023/05/23 07:05:27;;;;;;;11.45;3.90;;;;;;;;;;4974781;28;20058;-71
2023/05/23 07:07:54;;;;;;;9.75;2.72;;;;;;;;;;4976023;28;20057;-68
2023/05/23 07:10:22;;;;;;;14.52;4.20;;;;;;;;;;4978381;28;20121;-68
2023/05/23 07:12:49;;;;;;;11.52;2.92;;;;;;;;;;4973377;28;20050;-71
2023/05/23 07:15:15;;;;;;;13.27;3.20;;;;;;;;;;4975675;28;20065;-69
2023/05/23 07:17:42;;;;;;;14.40;3.33;;;;;;;;;;4977677;28;20072;-69
2023/05/23 07:20:09;;;;;;;10.55;3.40;;;;;;;;;;4978974;28;20139;-67
2023/05/23 07:22:38;;;;;;;8.50;2.72;;;;;;;;;;4984589;28;20053;-72
2023/05/23 07:25:08;;;;;;;14.35;3.45;;;;;;;;;;4974618;28;20062;-72
2023/05/23 07:27:38;;;;;;;11.25;3.70;;;;;;;;;;4985824;28;20054;-71
2023/05/23 07:30:09;;;;;;;9.43;2.92;;;;;;;;;;5011074;28;20051;-73
2023/05/23 07:32:37;;;;;;;11.70;2.95;;;;;;;;;;4968387;28;20057;-72
2023/05/23 07:35:06;;;;;;;13.17;2.70;;;;;;;;;;4975296;28;20050;-71
2023/05/23 07:37:34;;;;;;;8.30;2.80;;;;;;;;;;5018758;28;20301;-74
2023/05/23 07:40:01;;;;;;;11.73;3.25;;;;;;;;;;5011609;28;20070;-73
2023/05/23 07:42:27;;;;;;;11.38;2.60;;;;;;;;;;4973893;28;20054;-73
2023/05/23 07:44:56;;;;;;;12.63;2.90;;;;;;;;;;4973755;28;20134;-71
2023/05/23 07:47:23;;;;;;;9.57;2.85;;;;;;;;;;4981109;28;20050;-73
2023/05/23 07:49:50;;;;;;;10.23;2.83;;;;;;;;;;4969889;28;20065;-73
2023/05/23 07:52:17;;;;;;;8.10;2.20;;;;;;;;;;4982396;28;20078;-71
2023/05/23 07:54:44;;;;;;;6.28;2.28;;;;;;;;;;4970624;28;20118;-71
2023/05/23 07:57:11;;;;;;;9.30;2.78;;;;;;;;;;4981699;28;20089;-71
2023/05/23 07:59:38;;;;;;;5.50;2.20;;;;;;;;;;4976703;28;20050;-73
2023/05/23 08:02:09;;;;;;;6.95;2.30;;;;;;;;;;4983493;28;20151;-72
2023/05/23 08:04:39;;;;;;;7.20;2.10;;;;;;;;;;4970721;28;20050;-72
2023/05/23 08:07:07;;;;;;;9.32;2.55;;;;;;;;;;4976184;28;20062;-71
2023/05/23 08:09:33;;;;;;;10.10;2.38;;;;;;;;;;4975827;28;20073;-71
2023/05/23 08:12:00;;;;;;;7.45;2.30;;;;;;;;;;4979305;28;20137;-72
2023/05/23 08:14:34;;;;;;;8.25;2.03;;;;;;;;;;4975664;28;20065;-73
2023/05/23 08:17:01;;;;;;;8.02;1.88;;;;;;;;;;4965906;28;20057;-71
2023/05/23 08:19:29;;;;;;;11.30;2.25;;;;;;;;;;4976795;28;20077;-70
2023/05/23 08:21:56;;;;;;;8.52;2.08;;;;;;;;;;4959514;28;20125;-71
2023/05/23 08:24:22;;;;;;;10.25;2.08;;;;;;;;;;4975975;28;20057;-72
2023/05/23 08:26:50;;;;;;;5.88;1.90;;;;;;;;;;4970996;28;20058;-73
2023/05/23 08:29:16;;;;;;;13.10;2.03;;;;;;;;;;4982189;28;20062;-72
2023/05/23 08:31:42;;;;;;;6.15;1.70;;;;;;;;;;4977390;28;20066;-74
2023/05/23 08:34:09;;;;;;;9.48;2.47;;;;;;;;;;4979941;28;20095;-73
2023/05/23 08:36:38;;;;;;;4.65;1.50;;;;;;;;;;4971326;28;20056;-73
2023/05/23 08:39:08;;;;;;;8.57;1.73;;;;;;;;;;4977958;28;20050;-72
2023/05/23 08:41:35;;;;;;;10.77;2.17;;;;;;;;;;4976762;28;20077;-72
2023/05/23 08:44:05;;;;;;;5.40;1.60;;;;;;;;;;4980326;28;20042;-72
2023/05/23 08:46:32;;;;;;;7.28;1.83;;;;;;;;;;4969720;28;20077;-72
2023/05/23 08:49:00;;;;;;;3.80;1.40;;;;;;;;;;4981419;28;20064;-73
2023/05/23 08:51:27;;;;;;;7.93;1.27;;;;;;;;;;4978078;28;20104;-69
2023/05/23 08:53:56;;;;;;;8.07;2.28;;;;;;;;;;4980184;28;20077;-68
2023/05/23 08:56:24;;;;;;;7.35;1.40;;;;;;;;;;4972335;28;20054;-69
2023/05/23 08:58:55;;;;;;;10.88;1.73;;;;;;;;;;4978877;28;20054;-70
2023/05/23 09:01:22;;;;;;;7.43;1.73;;;;;;;;;;4983474;28;20050;-71
2023/05/23 09:03:50;;;;;;;8.40;1.73;;;;;;;;;;4979687;28;20065;-70
2023/05/23 09:06:17;;;;;;;18.97;2.20;;;;;;;;;;4964846;28;20062;-68
2023/05/23 09:08:45;;;;;;;5.90;1.43;;;;;;;;;;4954161;28;21072;-69
2023/05/23 09:11:14;;;;;;;14.00;1.70;;;;;;;;;;4958257;28;20061;-69
2023/05/23 09:13:41;;;;;;;6.88;1.70;;;;;;;;;;4968477;28;20081;-70
2023/05/23 09:16:09;;;;;;;8.98;1.70;;;;;;;;;;4959561;28;20058;-69
2023/05/23 09:18:37;;;;;;;8.02;2.10;;;;;;;;;;4951094;28;20055;-72
2023/05/23 09:21:04;;;;;;;7.00;1.50;;;;;;;;;;4959218;28;20059;-72
2023/05/23 09:23:31;;;;;;;13.80;2.00;;;;;;;;;;4957579;28;20161;-73
2023/05/23 09:26:04;;;;;;;9.73;1.70;;;;;;;;;;4957452;28;20058;-73
2023/05/23 09:28:33;;;;;;;10.57;1.38;;;;;;;;;;4972502;28;20305;-71
2023/05/23 09:30:59;;;;;;;;;;;;;;;;;;4980245;28;20093;-73
2023/05/23 09:33:30;;;;;;;14.93;3.42;;;;;;;;;;4974649;28;19926;-71
2023/05/23 09:35:57;;;;;;;13.38;3.95;;;;;;;;;;4975600;28;20074;-69
2023/05/23 09:38:24;;;;;;;5.78;1.88;;;;;;;;;;4977200;28;20065;-72
2023/05/23 09:40:54;;;;;;;8.75;1.83;;;;;;;;;;4975180;28;20046;-72
2023/05/23 09:43:22;;;;;;;9.32;1.63;;;;;;;;;;4960154;28;20078;-70
2023/05/23 09:45:50;;;;;;;10.38;1.65;;;;;;;;;;4974621;28;20062;-70
2023/05/23 09:48:17;;;;;;;16.00;2.33;;;;;;;;;;4980538;28;20061;-71
2023/05/23 09:50:50;;;;;;;11.52;1.75;;;;;;;;;;4951385;28;21073;-69
2023/05/23 09:53:16;;;;;;;7.78;1.70;;;;;;;;;;4941900;28;20051;-70
2023/05/23 09:55:45;;;;;;;14.27;2.08;;;;;;;;;;4969767;28;20089;-69
2023/05/23 09:58:12;;;;;;;7.10;1.58;;;;;;;;;;4980366;28;20136;-68
2023/05/23 10:00:42;;;;;;;10.02;1.98;;;;;;;;;;4851740;28;182263;-69
2023/05/23 10:03:12;;;;;;;9.30;2.00;;;;;;;;;;4979413;28;20102;-70
2023/05/23 10:05:41;;;;;;;7.05;1.65;;;;;;;;;;4923562;28;20061;-69
2023/05/23 10:08:09;;;;;;;15.40;1.95;;;;;;;;;;4962293;28;20058;-69
2023/05/23 10:10:50;;;;;;;9.15;1.88;;;;;;;;;;4949783;28;20074;-71
2023/05/23 10:13:17;;;;;;;10.55;1.98;;;;;;;;;;4961912;28;20069;-71
2023/05/23 10:15:44;;;;;;;6.28;1.60;;;;;;;;;;4951489;28;20054;-69
2023/05/23 10:18:16;;;;;;;9.45;2.08;;;;;;;;;;4960326;28;20129;-70
2023/05/23 10:20:45;;;;;;;10.80;2.72;;;;;;;;;;4952001;28;20058;-74
2023/05/23 10:23:16;;;;;;;11.32;2.25;;;;;;;;;;4958582;28;20125;-69
2023/05/23 10:25:45;;;;;;;14.07;2.13;;;;;;;;;;4956342;28;20178;-70
2023/05/23 10:28:13;;;;;;;17.38;2.47;;;;;;;;;;4992176;28;20065;-70
2023/05/23 10:30:40;;;;;;;17.45;2.25;;;;;;;;;;4972242;28;20049;-69
2023/05/23 10:33:07;;;;;;;7.65;1.80;;;;;;;;;;4981148;28;20261;-69
2023/05/23 10:35:48;;;;;;;9.98;1.67;;;;;;;;;;4967008;28;20050;-70
2023/05/23 10:38:20;;;;;;;14.95;2.38;;;;;;;;;;4989016;28;20065;-71
2023/05/23 10:40:52;;;;;;;7.53;1.95;;;;;;;;;;4986127;28;20051;-70
2023/05/23 10:43:23;;;;;;;8.52;1.90;;;;;;;;;;4996053;28;20065;-71
2023/05/23 10:45:50;;;;;;;11.18;2.00;;;;;;;;;;4973468;28;20058;-69
2023/05/23 10:48:20;;;;;;;10.82;2.30;;;;;;;;;;4979601;28;20147;-71
2023/05/23 10:51:01;;;;;;;11.90;2.30;;;;;;;;;;4976010;28;22006;-70
2023/05/23 10:53:29;;;;;;;14.57;2.10;;;;;;;;;;4979068;28;20081;-69
2023/05/23 10:55:56;;;;;;;5.70;1.85;;;;;;;;;;4967232;28;20061;-69
2023/05/23 10:58:22;;;;;;;5.63;1.63;;;;;;;;;;4953755;28;20148;-70
2023/05/23 11:00:53;;;;;;;9.27;2.22;;;;;;;;;;4953150;28;20117;-70
2023/05/23 11:03:30;;;;;;;6.05;1.40;;;;;;;;;;4951698;28;20104;-71
2023/05/23 11:06:00;;;;;;;9.77;3.17;;;;;;;;;;4967830;28;20067;-70
2023/05/23 11:08:31;;;;;;;10.32;2.10;;;;;;;;;;4954318;28;20077;-69
2023/05/23 11:10:59;;;;;;;6.07;1.85;;;;;;;;;;4959231;28;20058;-71
2023/05/23 11:13:26;;;;;;;4.07;1.35;;;;;;;;;;4955748;28;20058;-69
2023/05/23 11:15:52;;;;;;;12.35;2.45;;;;;;;;;;4959122;28;20146;-71
2023/05/23 11:18:25;;;;;;;9.90;2.05;;;;;;;;;;4970794;28;20062;-70
2023/05/23 11:20:52;;;;;;;11.65;2.00;;;;;;;;;;4938556;28;20141;-71
2023/05/23 11:23:21;;;;;;;7.93;2.03;;;;;;;;;;4947178;28;20059;-68
2023/05/23 11:25:49;;;;;;;8.18;1.65;;;;;;;;;;4955633;28;20054;-72
2023/05/23 11:28:16;;;;;;;10.68;2.30;;;;;;;;;;4956661;28;20059;-70
2023/05/23 11:30:43;;;;;;;8.93;1.77;;;;;;;;;;4952815;28;20043;-70
2023/05/23 11:33:12;;;;;;;11.85;1.88;;;;;;;;;;4953476;28;20054;-70
2023/05/23 11:35:42;;;;;;;9.90;2.08;;;;;;;;;;4971423;28;20148;-69
2023/05/23 11:38:09;;;;;;;8.52;1.55;;;;;;;;;;4957352;28;20074;-68
2023/05/23 11:40:38;;;;;;;8.98;2.05;;;;;;;;;;4953063;28;20082;-69
2023/05/23 11:43:07;;;;;;;10.13;1.63;;;;;;;;;;4956853;28;20075;-71
2023/05/23 11:45:34;;;;;;;15.40;1.90;;;;;;;;;;4954781;28;20050;-69
2023/05/23 11:48:07;;;;;;;10.13;2.08;;;;;;;;;;4978055;28;20066;-69
2023/05/23 11:50:35;;;;;;;12.55;1.52;;;;;;;;;;4952194;28;20062;-71
2023/05/23 11:53:01;;;;;;;10.80;1.67;;;;;;;;;;4959664;28;20071;-71
2023/05/23 11:55:28;;;;;;;9.75;1.70;;;;;;;;;;4983285;28;20061;-70
2023/05/23 11:57:57;;;;;;;10.93;1.48;;;;;;;;;;4977111;28;20212;-69
2023/05/23 12:00:24;;;;;;;9.80;1.70;;;;;;;;;;4971603;28;20089;-70
2023/05/23 12:02:53;;;;;;;2.30;1.00;;;;;;;;;;4997843;28;20069;-69
2023/05/23 12:05:20;;;;;;;6.90;1.70;;;;;;;;;;4991588;28;20065;-69
2023/05/23 12:07:48;;;;;;;13.32;1.95;;;;;;;;;;5000013;28;20058;-69
2023/05/23 12:10:18;;;;;;;7.20;1.50;;;;;;;;;;4991507;28;20057;-70
2023/05/23 12:12:45;;;;;;;8.25;1.42;;;;;;;;;;4995579;28;20062;-70
2023/05/23 12:15:13;;;;;;;10.00;1.95;;;;;;;;;;4995048;28;20061;-68
2023/05/23 12:17:44;;;;;;;21.08;4.97;;;;;;;;;;5004180;28;20054;-70
2023/05/23 12:20:11;;;;;;;11.73;2.47;;;;;;;;;;4994477;28;20062;-71
2023/05/23 12:22:38;;;;;;;5.25;1.90;;;;;;;;;;4990534;28;20061;-69
2023/05/23 12:25:08;;;;;;;8.65;2.03;;;;;;;;;;4996903;28;20057;-69
2023/05/23 12:27:36;;;;;;;6.85;1.73;;;;;;;;;;5000699;28;20067;-71
2023/05/23 12:30:06;;;;;;;5.28;1.20;;;;;;;;;;4994076;28;20050;-70
2023/05/23 12:32:34;;;;;;;8.75;1.45;;;;;;;;;;4964196;28;20129;-70
2023/05/23 12:35:01;;;;;;;12.63;2.47;;;;;;;;;;4960037;28;20062;-70
2023/05/23 12:37:28;;;;;;;7.20;1.50;;;;;;;;;;4978968;28;20050;-70
2023/05/23 12:39:55;;;;;;;12.07;1.80;;;;;;;;;;4994880;28;20060;-70
2023/05/23 12:42:25;;;;;;;8.65;1.92;;;;;;;;;;4979263;28;20058;-69
2023/05/23 12:44:52;;;;;;;8.13;1.75;;;;;;;;;;4993197;28;20167;-69
2023/05/23 12:47:19;;;;;;;7.78;1.75;;;;;;;;;;4998281;28;20057;-71
2023/05/23 12:49:48;;;;;;;10.43;1.85;;;;;;;;;;4983964;28;20145;-69
2023/05/23 12:52:15;;;;;;;9.25;2.00;;;;;;;;;;4980369;28;20123;-70
2023/05/23 12:54:41;;;;;;;8.18;1.58;;;;;;;;;;4981299;28;20053;-71
2023/05/23 12:57:08;;;;;;;10.10;1.65;;;;;;;;;;4983675;28;20061;-69
2023/05/23 12:59:34;;;;;;;12.43;2.38;;;;;;;;;;4997635;28;20083;-71
2023/05/23 13:02:01;;;;;;;5.78;1.48;;;;;;;;;;4997395;28;20057;-70
2023/05/23 13:04:31;;;;;;;7.07;1.48;;;;;;;;;;4979050;28;20049;-70
2023/05/23 13:07:02;;;;;;;5.38;1.40;;;;;;;;;;4992442;28;20057;-70
2023/05/23 13:09:29;;;;;;;8.13;1.88;;;;;;;;;;4998840;28;20062;-70
2023/05/23 13:11:55;;;;;;;12.77;1.63;;;;;;;;;;4973762;28;20100;-70
2023/05/23 13:14:22;;;;;;;11.32;1.98;;;;;;;;;;4992236;28;20058;-69
2023/05/23 13:16:48;;;;;;;7.88;1.50;;;;;;;;;;4979141;28;20152;-70
2023/05/23 13:19:15;;;;;;;6.80;1.45;;;;;;;;;;4998398;28;20129;-70
2023/05/23 13:21:43;;;;;;;9.48;1.73;;;;;;;;;;4995885;28;20115;-70
2023/05/23 13:24:10;;;;;;;10.57;1.52;;;;;;;;;;4959233;28;20124;-69
2023/05/23 13:26:37;;;;;;;5.80;1.13;;;;;;;;;;4953884;28;20223;-70
2023/05/23 13:29:03;;;;;;;19.25;2.22;;;;;;;;;;4981981;28;20113;-70
2023/05/23 13:31:30;;;;;;;14.82;1.80;;;;;;;;;;5000486;28;20208;-69
2023/05/23 13:33:56;;;;;;;8.10;1.70;;;;;;;;;;4983784;28;20081;-71
2023/05/23 13:36:24;;;;;;;12.00;1.83;;;;;;;;;;4977332;28;20054;-72
2023/05/23 13:38:51;;;;;;;6.15;1.50;;;;;;;;;;4974791;28;20073;-71
2023/05/23 13:41:19;;;;;;;7.35;1.50;;;;;;;;;;4977939;28;20054;-72
2023/05/23 13:43:45;;;;;;;11.68;1.83;;;;;;;;;;4978567;28;20057;-69
2023/05/23 13:46:12;;;;;;;11.38;1.70;;;;;;;;;;4998203;28;20092;-69
2023/05/23 13:48:39;;;;;;;7.68;1.35;;;;;;;;;;4985902;28;20173;-71
2023/05/23 13:51:06;;;;;;;10.57;1.70;;;;;;;;;;4999238;28;20297;-70
2023/05/23 13:53:32;;;;;;;11.38;2.28;;;;;;;;;;4995669;28;20060;-71
2023/05/23 13:55:59;;;;;;;6.60;1.40;;;;;;;;;;4985792;28;20144;-69
2023/05/23 13:58:34;;;;;;;8.32;1.75;;;;;;;;;;4990948;28;20648;-69
2023/05/23 14:01:00;;;;;;;10.88;1.52;;;;;;;;;;5001035;28;20062;-69
2023/05/23 14:03:27;;;;;;;6.43;1.58;;;;;;;;;;4982145;28;20058;-70
2023/05/23 14:05:53;;;;;;;8.95;1.63;;;;;;;;;;4975009;28;20054;-69
2023/05/23 14:08:20;;;;;;;6.28;1.50;;;;;;;;;;4949719;28;20112;-70
2023/05/23 14:10:49;;;;;;;6.57;1.90;;;;;;;;;;4954329;28;20077;-69
2023/05/23 14:13:16;;;;;;;5.03;1.30;;;;;;;;;;4981463;28;20145;-71
2023/05/23 14:15:46;;;;;;;8.68;1.45;;;;;;;;;;4955922;28;20058;-70
2023/05/23 14:18:13;;;;;;;9.00;1.50;;;;;;;;;;4966180;28;20122;-69
2023/05/23 14:20:42;;;;;;;5.13;1.35;;;;;;;;;;4960461;28;20054;-70
2023/05/23 14:23:09;;;;;;;6.20;1.52;;;;;;;;;;4986653;28;20062;-68
2023/05/23 14:25:36;;;;;;;8.43;1.50;;;;;;;;;;4958415;28;20170;-70
2023/05/23 14:28:03;;;;;;;11.52;1.67;;;;;;;;;;4994851;28;20080;-69
2023/05/23 14:30:31;;;;;;;12.90;1.73;;;;;;;;;;4964158;28;20133;-69
2023/05/23 14:32:57;;;;;;;;;;;;;;;;;;4964519;28;20057;-71
2023/05/23 14:35:28;;;;;;;7.75;1.65;;;;;;;;;;4954473;28;19933;-71
2023/05/23 14:37:55;;;;;;;11.95;2.40;;;;;;;;;;4979057;28;20046;-69
2023/05/23 14:40:22;;;;;;;10.10;1.70;;;;;;;;;;4959439;28;20038;-71
2023/05/23 14:42:48;;;;;;;5.68;1.38;;;;;;;;;;4960384;28;21547;-69
2023/05/23 14:45:15;;;;;;;11.30;1.85;;;;;;;;;;4958967;28;20126;-69
2023/05/23 14:47:42;;;;;;;6.07;1.48;;;;;;;;;;4983608;28;20129;-71